หน้าหลัก
METAR-TAF:

METAR-TAF

ท่าอากาศยาน :

Pembrey, เวลส์

ละติจูด: 51-43N, ลองจิจูด: 004-22W, ความสูง: 3 ม.

การสังเกตสภาพอากาศปัจจุบัน

รายงานได้ทำขึ้นเมื่อ 46 นาทีที่แล้ว ณ เวลา 23:50 UTC
ลม 6 นอตจากเหนือ
อุณหภูมิ 10°C
ความชื้น 87%
ความกดอากาศ 1019 hPa
ทัศนวิสัย 10 กม. หรือมากกว่า

METAR: EGOP 182350Z AUTO 01006KT 9999 NCD 10/08 Q1019

เวลา: 01:36 (00:36 UTC)


TAF: หายไป

สังเกตการณ์สภาพอากาศและพยากรณ์อากาศของสนามบินมากกว่า 4000 แห่ง (รายงาน METAR และ TAF).

สถานีที่ดูได้จะแสดงไว้ด้วยจุดสีเหลืองและสีแดงบนแผนที่.

เลื่อนเมาส์ไปเหนือจุดเพื่อดูชื่อสถานี.

แล้วคลิกเพื่อดูสังเกตการณ์และการพยากรณ์สภาพอากาศ.

ในการเปลี่ยนแผนที่: คลิกที่ปุ่มสีเขียวที่มีกากบาทสีดำเพื่อซูมเข้า; ที่ปุ่มสีเขียวที่มีขีดเพื่อซูมออก; หรือที่ลูกศรสีเขียวเพื่อไปยังแผนที่ที่อยู่ติดกัน.


METAR-TAF: